Time;durP1;ratioP1;P1;durP2;ratioP2;P2;SDS_P1;SDS_P2;PMS_P1;PMS_P2;Temp;Humidity;BMP_temperature;BMP_pressure;BME280_temperature;BME280_humidity;BME280_pressure;Samples;Min_cycle;Max_cycle;Signal;HPM_P1;HPM_P2
2022/05/28 00:00:29;;;;;;;1.33;0.60;;;;;;;12.04;57.21;99983.03;4985852;28;20386;-53
2022/05/28 00:02:56;;;;;;;3.08;0.60;;;;;;;12.05;57.48;99983.88;4978072;28;20106;-50
2022/05/28 00:05:23;;;;;;;4.30;0.70;;;;;;;12.04;57.56;99976.97;4991699;28;20721;-52
2022/05/28 00:07:49;;;;;;;2.92;0.70;;;;;;;12.05;57.93;99968.28;4983578;28;20058;-53
2022/05/28 00:10:18;;;;;;;4.28;0.68;;;;;;;12.06;57.58;99970.00;4981878;28;20057;-52
2022/05/28 00:12:45;;;;;;;1.92;0.60;;;;;;;12.08;57.83;99970.81;4993392;28;20061;-53
2022/05/28 00:15:13;;;;;;;2.58;0.63;;;;;;;12.05;57.87;99968.28;4987019;28;20065;-51
2022/05/28 00:17:39;;;;;;;3.60;1.00;;;;;;;12.03;58.01;99965.72;4992075;28;20058;-51
2022/05/28 00:20:09;;;;;;;1.80;0.40;;;;;;;12.03;58.38;99972.66;4983871;28;20063;-50
2022/05/28 00:22:40;;;;;;;4.10;0.70;;;;;;;12.03;58.03;99959.69;5009039;28;20086;-50
2022/05/28 00:25:10;;;;;;;3.13;0.60;;;;;;;12.03;58.08;99959.69;5011247;28;20050;-53
2022/05/28 00:27:36;;;;;;;1.33;0.45;;;;;;;12.02;58.51;99964.03;4990602;28;20108;-51
2022/05/28 00:30:04;;;;;;;5.40;0.70;;;;;;;12.00;58.69;99961.47;4984471;28;20456;-52
2022/05/28 00:32:30;;;;;;;4.43;0.60;;;;;;;11.99;58.36;99956.31;4984184;28;20050;-52
2022/05/28 00:34:57;;;;;;;2.65;0.75;;;;;;;12.02;58.85;99952.78;4993436;28;20054;-53
2022/05/28 00:37:25;;;;;;;3.63;0.70;;;;;;;12.02;58.63;99952.78;4994949;28;20085;-53
2022/05/28 00:39:51;;;;;;;3.38;0.75;;;;;;;11.98;58.85;99945.06;4997278;28;20053;-50
2022/05/28 00:42:18;;;;;;;2.13;0.43;;;;;;;11.96;58.76;99953.78;4996908;28;20430;-51
2022/05/28 00:44:45;;;;;;;2.90;0.60;;;;;;;11.93;59.20;99949.50;4995517;28;20165;-53
2022/05/28 00:47:12;;;;;;;1.58;0.60;;;;;;;11.93;59.10;99953.84;4996861;28;20117;-53
2022/05/28 00:49:38;;;;;;;2.83;0.60;;;;;;;11.92;59.04;99950.41;4978119;28;20059;-53
2022/05/28 00:52:07;;;;;;;4.22;0.60;;;;;;;11.92;59.23;99937.41;4977353;28;20062;-50
2022/05/28 00:54:41;;;;;;;2.33;0.50;;;;;;;11.92;59.08;99942.59;4977314;28;20089;-51
2022/05/28 00:57:09;;;;;;;2.38;0.70;;;;;;;11.90;59.41;99939.19;4976971;28;20468;-53
2022/05/28 00:59:36;;;;;;;2.05;0.52;;;;;;;11.90;59.51;99934.00;4984117;28;20058;-52
2022/05/28 01:02:07;;;;;;;2.88;0.70;;;;;;;11.90;59.29;99939.19;4985156;28;20066;-53
2022/05/28 01:04:40;;;;;;;5.28;1.00;;;;;;;11.92;59.26;99932.22;4986598;28;20061;-50
2022/05/28 01:07:16;;;;;;;3.97;0.82;;;;;;;11.89;59.36;99927.09;4996486;28;20070;-53
2022/05/28 01:09:50;;;;;;;3.38;0.60;;;;;;;11.84;59.74;99922.94;4996291;28;20531;-53
2022/05/28 01:12:26;;;;;;;2.47;0.80;;;;;;;11.80;59.62;99929.94;4996562;28;20066;-53
2022/05/28 01:15:01;;;;;;;3.75;0.65;;;;;;;11.78;59.90;99930.88;4986641;28;20050;-50
2022/05/28 01:17:33;;;;;;;3.53;0.65;;;;;;;11.73;59.60;99925.78;4990381;28;20065;-53
2022/05/28 01:20:07;;;;;;;1.90;0.90;;;;;;;11.72;59.95;99918.88;4994108;28;20494;-52
2022/05/28 01:22:48;;;;;;;3.08;0.80;;;;;;;11.70;59.91;99925.88;5011481;28;20394;-52
2022/05/28 01:25:23;;;;;;;2.60;0.73;;;;;;;11.65;59.74;99928.56;5013330;28;20058;-50
2022/05/28 01:27:52;;;;;;;;;;;;;;;11.55;60.70;99916.72;4996623;28;20062;-53
2022/05/28 01:30:19;;;;;;;2.55;0.50;;;;;;;11.55;60.36;99931.44;4987941;28;19925;-50
2022/05/28 01:32:51;;;;;;;2.30;0.80;;;;;;;11.57;60.36;99924.47;4985160;28;20051;-53
2022/05/28 01:35:20;;;;;;;2.05;0.43;;;;;;;11.54;60.49;99930.59;4990628;28;20463;-51
2022/05/28 01:37:48;;;;;;;4.45;0.80;;;;;;;11.50;60.61;99933.31;4983708;28;20068;-54
2022/05/28 01:40:16;;;;;;;2.92;0.40;;;;;;;11.45;60.55;99940.34;4987826;28;20386;-53
2022/05/28 01:42:47;;;;;;;11.32;0.85;;;;;;;11.43;60.92;99931.72;4976659;28;20058;-51
2022/05/28 01:45:17;;;;;;;3.15;0.75;;;;;;;11.38;60.56;99930.09;4997511;28;20054;-51
2022/05/28 01:47:45;;;;;;;1.73;0.60;;;;;;;11.34;60.99;99933.66;5002032;28;20054;-50
2022/05/28 01:50:15;;;;;;;3.05;1.10;;;;;;;11.33;61.30;99931.94;4989122;28;20109;-49
2022/05/28 01:52:43;;;;;;;3.05;0.98;;;;;;;11.27;61.30;99929.50;4995242;28;20061;-51
2022/05/28 01:55:13;;;;;;;2.05;0.60;;;;;;;11.21;61.42;99921.88;4995832;28;20042;-52
2022/05/28 01:57:40;;;;;;;2.60;0.50;;;;;;;11.15;61.62;99922.03;4995766;28;20057;-54
2022/05/28 02:00:09;;;;;;;2.05;0.60;;;;;;;11.11;61.67;99920.38;4995739;28;20073;-53
2022/05/28 02:02:38;;;;;;;2.13;0.60;;;;;;;11.11;62.11;99930.75;4992178;28;20057;-52
2022/05/28 02:05:05;;;;;;;3.55;0.80;;;;;;;11.08;62.09;99925.66;4990405;28;20053;-50
2022/05/28 02:07:32;;;;;;;2.65;0.73;;;;;;;11.02;62.79;99920.59;4981367;28;20259;-50
2022/05/28 02:10:02;;;;;;;2.70;0.68;;;;;;;11.04;62.70;99917.09;4995349;28;20062;-50
2022/05/28 02:12:32;;;;;;;3.78;0.80;;;;;;;11.07;62.48;99913.56;4995542;28;20061;-52
2022/05/28 02:15:14;;;;;;;2.90;0.55;;;;;;;11.12;62.98;99909.13;4995078;28;20058;-51
2022/05/28 02:17:48;;;;;;;3.55;0.60;;;;;;;11.18;63.37;99901.19;4991548;28;20181;-53
2022/05/28 02:20:25;;;;;;;1.83;0.60;;;;;;;11.22;63.38;99901.97;4988488;28;20116;-53
2022/05/28 02:22:56;;;;;;;2.47;0.60;;;;;;;11.23;63.35;99904.53;4994858;28;20427;-52
2022/05/28 02:25:29;;;;;;;4.13;0.65;;;;;;;11.26;62.93;99908.78;4981890;28;20082;-50
2022/05/28 02:27:57;;;;;;;2.40;0.63;;;;;;;11.26;63.16;99904.44;4995333;28;20057;-53
2022/05/28 02:30:24;;;;;;;2.40;0.50;;;;;;;11.26;62.99;99899.25;4995504;28;20112;-50
2022/05/28 02:33:01;;;;;;;5.15;0.75;;;;;;;11.26;62.93;99912.25;4995545;28;20125;-51
2022/05/28 02:35:27;;;;;;;3.53;0.60;;;;;;;11.23;62.65;99908.88;4995503;28;20054;-54
2022/05/28 02:37:54;;;;;;;3.90;0.75;;;;;;;11.20;63.04;99902.00;4995331;28;20050;-53
2022/05/28 02:40:20;;;;;;;1.10;0.40;;;;;;;11.18;62.76;99905.53;4991814;28;20047;-52
2022/05/28 02:42:47;;;;;;;3.70;0.55;;;;;;;11.17;62.69;99902.09;4983085;28;20050;-54
2022/05/28 02:45:14;;;;;;;1.63;0.60;;;;;;;11.16;62.73;99899.53;5005554;28;20065;-52
2022/05/28 02:47:40;;;;;;;1.77;0.60;;;;;;;11.13;62.78;99903.03;5000204;28;20128;-50
2022/05/28 02:50:09;;;;;;;1.42;0.52;;;;;;;11.11;62.45;99904.81;4994745;28;20478;-52
2022/05/28 02:52:36;;;;;;;1.20;0.50;;;;;;;11.06;61.81;99902.34;4994603;28;20526;-51
2022/05/28 02:55:04;;;;;;;1.27;0.40;;;;;;;11.03;62.05;99897.22;4995147;28;20069;-53
2022/05/28 02:57:30;;;;;;;6.18;0.52;;;;;;;11.00;62.64;99896.44;4990057;28;20046;-53
2022/05/28 02:59:57;;;;;;;2.20;0.55;;;;;;;10.96;62.58;99902.59;4990930;28;20046;-50
2022/05/28 03:02:23;;;;;;;1.55;0.30;;;;;;;10.92;62.22;99898.34;4994908;28;20132;-50
2022/05/28 03:04:50;;;;;;;2.20;0.30;;;;;;;10.89;62.96;99893.22;4994774;28;20050;-50
2022/05/28 03:07:18;;;;;;;1.60;0.50;;;;;;;10.86;62.70;99899.34;4994810;28;20054;-50
2022/05/28 03:09:44;;;;;;;2.08;0.40;;;;;;;10.85;62.95;99905.41;4994113;28;20380;-53
2022/05/28 03:12:11;;;;;;;1.10;0.30;;;;;;;10.84;63.15;99905.44;4989062;28;20050;-53
2022/05/28 03:14:38;;;;;;;0.47;0.20;;;;;;;10.84;63.46;99910.63;4978789;28;20047;-50
2022/05/28 03:17:05;;;;;;;0.40;0.38;;;;;;;10.83;63.77;99899.41;4994521;28;20054;-53
2022/05/28 03:19:31;;;;;;;0.80;0.30;;;;;;;10.84;63.77;99889.88;4994536;28;20046;-53
2022/05/28 03:21:58;;;;;;;3.05;0.50;;;;;;;10.83;64.13;99902.00;5006539;28;20379;-53
2022/05/28 03:24:25;;;;;;;2.10;0.60;;;;;;;10.86;64.09;99898.47;5013666;28;20477;-50
2022/05/28 03:26:57;;;;;;;1.23;0.20;;;;;;;10.87;64.23;99893.25;4992803;28;20050;-52
2022/05/28 03:29:23;;;;;;;1.00;0.35;;;;;;;10.89;64.42;99890.63;4985836;28;20483;-50
2022/05/28 03:31:49;;;;;;;1.08;0.35;;;;;;;10.88;64.40;99883.75;4986937;28;20058;-50
2022/05/28 03:34:16;;;;;;;0.55;0.28;;;;;;;10.87;64.69;99884.63;4974671;28;20055;-50
2022/05/28 03:36:43;;;;;;;1.10;0.40;;;;;;;10.88;65.19;99881.16;4974777;28;20061;-50
2022/05/28 03:39:09;;;;;;;1.13;0.30;;;;;;;10.83;64.48;99877.81;4974856;28;20062;-50
2022/05/28 03:41:37;;;;;;;1.15;0.40;;;;;;;10.82;64.82;99886.47;4974729;28;20065;-50
2022/05/28 03:44:04;;;;;;;1.23;0.30;;;;;;;10.82;64.68;99882.16;4984433;28;20063;-50
2022/05/28 03:46:33;;;;;;;0.70;0.30;;;;;;;10.83;64.71;99878.66;5003866;28;20054;-50
2022/05/28 03:49:02;;;;;;;2.22;0.40;;;;;;;10.84;64.61;99880.38;4975609;28;20752;-52
2022/05/28 03:51:30;;;;;;;0.93;0.47;;;;;;;10.84;64.69;99874.34;4974587;28;20058;-53
2022/05/28 03:53:56;;;;;;;0.95;0.40;;;;;;;10.84;65.03;99872.59;4974671;28;20059;-53
2022/05/28 03:56:23;;;;;;;3.42;0.50;;;;;;;10.88;65.10;99875.97;4991676;28;20055;-50
2022/05/28 03:58:51;;;;;;;1.48;0.40;;;;;;;10.92;65.63;99882.78;4987461;28;20054;-50
2022/05/28 04:01:18;;;;;;;1.08;0.40;;;;;;;11.01;65.02;99882.59;4990211;28;20470;-50
2022/05/28 04:03:45;;;;;;;1.00;0.40;;;;;;;11.13;65.29;99882.28;4979062;28;20069;-53
2022/05/28 04:06:12;;;;;;;3.67;0.50;;;;;;;11.27;65.02;99884.56;4993917;28;20054;-50
2022/05/28 04:08:39;;;;;;;3.50;0.50;;;;;;;11.35;64.54;99878.28;4994039;28;20062;-51
2022/05/28 04:11:06;;;;;;;2.13;0.60;;;;;;;11.50;64.33;99881.41;4993110;28;20158;-50
2022/05/28 04:13:32;;;;;;;1.95;0.57;;;;;;;11.66;64.24;99882.69;4989091;28;20049;-53
2022/05/28 04:16:01;;;;;;;1.05;0.50;;;;;;;11.81;64.05;99884.06;4981506;28;20058;-50
2022/05/28 04:18:27;;;;;;;1.35;0.40;;;;;;;11.88;63.46;99883.84;4993379;28;20116;-49
2022/05/28 04:20:54;;;;;;;2.25;0.30;;;;;;;11.90;63.23;99882.06;4993385;28;20065;-50
2022/05/28 04:23:20;;;;;;;2.28;0.40;;;;;;;11.93;62.90;99875.94;4993439;28;20046;-52
2022/05/28 04:25:47;;;;;;;1.20;0.38;;;;;;;11.92;62.90;99879.44;4993294;28;20065;-50
2022/05/28 04:28:13;;;;;;;1.33;0.40;;;;;;;11.98;62.83;99872.34;4993514;28;20054;-50
2022/05/28 04:30:40;;;;;;;0.70;0.35;;;;;;;12.00;62.81;99869.72;4985600;28;20062;-50
2022/05/28 04:33:08;;;;;;;0.95;0.43;;;;;;;12.05;62.70;99880.81;4980420;28;20065;-51
2022/05/28 04:35:34;;;;;;;2.30;1.02;;;;;;;12.11;62.57;99869.41;4981026;28;20066;-54
2022/05/28 04:38:00;;;;;;;2.63;0.45;;;;;;;12.24;62.55;99862.97;4974260;28;20055;-53
2022/05/28 04:40:27;;;;;;;1.58;0.50;;;;;;;12.37;61.86;99861.69;4974140;28;20050;-51
2022/05/28 04:42:53;;;;;;;1.30;0.50;;;;;;;12.52;61.50;99860.41;4974057;28;20062;-53
2022/05/28 04:45:20;;;;;;;1.63;0.30;;;;;;;12.59;60.88;99861.94;4980166;28;20074;-51
2022/05/28 04:47:46;;;;;;;1.77;0.60;;;;;;;12.61;60.27;99866.19;4980604;28;20070;-50
2022/05/28 04:50:14;;;;;;;1.08;0.43;;;;;;;12.63;60.21;99864.38;4987929;28;20063;-50
2022/05/28 04:52:41;;;;;;;1.88;0.50;;;;;;;12.58;59.87;99855.03;4991487;28;20054;-51
2022/05/28 04:55:10;;;;;;;1.27;0.50;;;;;;;12.59;59.63;99867.13;4993057;28;20471;-50
2022/05/28 04:57:37;;;;;;;1.98;0.40;;;;;;;12.63;59.33;99869.59;4993514;28;20047;-54
2022/05/28 05:00:06;;;;;;;1.20;0.40;;;;;;;12.63;59.12;99874.78;4989637;28;20046;-54
2022/05/28 05:02:32;;;;;;;1.73;0.38;;;;;;;12.66;58.97;99873.00;4983307;28;20050;-54
2022/05/28 05:04:59;;;;;;;1.42;0.70;;;;;;;12.72;58.59;99871.06;4981507;28;20432;-53
2022/05/28 05:07:27;;;;;;;1.05;0.32;;;;;;;12.81;58.12;99867.31;4982276;28;20058;-51
2022/05/28 05:09:53;;;;;;;2.70;0.30;;;;;;;12.94;57.75;99863.41;4973356;28;20456;-53
2022/05/28 05:12:21;;;;;;;1.70;0.25;;;;;;;13.13;57.44;99874.97;4973414;28;20452;-51
2022/05/28 05:14:48;;;;;;;1.23;0.20;;;;;;;13.30;56.80;99865.78;4973883;28;20077;-54
2022/05/28 05:17:14;;;;;;;5.18;0.73;;;;;;;13.46;56.13;99865.22;4981124;28;20062;-50
2022/05/28 05:19:40;;;;;;;3.83;0.82;;;;;;;13.54;55.65;99875.41;4981975;28;20113;-51
2022/05/28 05:22:08;;;;;;;1.60;0.32;;;;;;;13.55;55.57;99882.31;4997853;28;20086;-50
2022/05/28 05:24:36;;;;;;;0.40;0.30;;;;;;;13.49;54.94;99877.28;4996282;28;20062;-52
2022/05/28 05:27:03;;;;;;;1.00;0.30;;;;;;;13.38;54.94;99882.00;4996393;28;20102;-54
2022/05/28 05:29:30;;;;;;;2.45;0.57;;;;;;;13.45;54.89;99878.28;4996304;28;20054;-51
2022/05/28 05:31:57;;;;;;;0.75;0.30;;;;;;;13.58;55.02;99882.19;4987404;28;20058;-50
2022/05/28 05:34:23;;;;;;;0.50;0.30;;;;;;;13.83;54.17;99872.63;4980693;28;20058;-51
2022/05/28 05:36:50;;;;;;;1.88;0.40;;;;;;;13.99;54.03;99877.28;4989138;28;20047;-50
2022/05/28 05:39:16;;;;;;;1.33;0.40;;;;;;;14.10;53.57;99876.00;4977168;28;20071;-54
2022/05/28 05:41:44;;;;;;;1.95;0.60;;;;;;;14.16;53.26;99872.34;4976627;28;20051;-53
2022/05/28 05:44:11;;;;;;;1.05;0.40;;;;;;;14.12;52.81;99874.19;4981174;28;20046;-52
2022/05/28 05:46:40;;;;;;;2.05;0.30;;;;;;;14.16;52.75;99882.75;4999691;28;20080;-51
2022/05/28 05:49:07;;;;;;;0.57;0.20;;;;;;;14.26;52.73;99878.91;4982309;28;20090;-54
2022/05/28 05:51:36;;;;;;;0.40;0.20;;;;;;;14.39;52.04;99880.13;5007096;28;20065;-51
2022/05/28 05:54:03;;;;;;;1.15;0.30;;;;;;;14.51;52.00;99876.25;4996216;28;20057;-50
2022/05/28 05:56:29;;;;;;;0.55;0.30;;;;;;;14.65;51.81;99878.34;4995660;28;20386;-53
2022/05/28 05:58:57;;;;;;;3.67;0.30;;;;;;;14.84;51.15;99874.13;4996037;28;20336;-53
2022/05/28 06:01:25;;;;;;;1.17;0.40;;;;;;;15.04;50.67;99874.16;4994772;28;20057;-52
2022/05/28 06:03:52;;;;;;;0.80;0.30;;;;;;;15.26;50.23;99875.94;4985382;28;20074;-52
2022/05/28 06:06:19;;;;;;;1.80;0.52;;;;;;;15.39;49.71;99872.75;4990659;28;20065;-51
2022/05/28 06:08:47;;;;;;;1.10;0.40;;;;;;;15.55;49.29;99874.69;4976615;28;20057;-54
2022/05/28 06:11:13;;;;;;;2.00;0.65;;;;;;;15.62;49.02;99869.22;4975762;28;20055;-52
2022/05/28 06:13:39;;;;;;;1.00;0.40;;;;;;;15.63;48.90;99876.13;4976237;28;20055;-53
2022/05/28 06:16:07;;;;;;;1.88;1.00;;;;;;;15.59;48.81;99879.75;4978599;28;20047;-51
2022/05/28 06:18:34;;;;;;;1.38;0.40;;;;;;;15.53;49.17;99873.91;4987618;28;20047;-51
2022/05/28 06:21:01;;;;;;;2.65;0.30;;;;;;;15.43;48.99;99865.63;4990412;28;20514;-52
2022/05/28 06:23:29;;;;;;;1.35;0.47;;;;;;;15.31;49.04;99869.59;4990994;28;20054;-53
2022/05/28 06:25:56;;;;;;;0.85;0.30;;;;;;;15.23;49.19;99876.06;4986819;28;20062;-52
2022/05/28 06:28:23;;;;;;;1.70;0.80;;;;;;;15.11;49.24;99875.63;4991581;28;20066;-50
2022/05/28 06:30:51;;;;;;;3.33;0.50;;;;;;;15.08;49.52;99883.56;4976162;28;20063;-53
2022/05/28 06:33:19;;;;;;;2.63;0.40;;;;;;;15.02;49.77;99880.34;4981811;28;20061;-53
2022/05/28 06:35:46;;;;;;;1.05;0.40;;;;;;;14.92;49.43;99882.47;4980897;28;20645;-54
2022/05/28 06:38:12;;;;;;;1.00;0.40;;;;;;;14.88;49.63;99873.09;4981738;28;20062;-51
2022/05/28 06:40:39;;;;;;;1.55;0.50;;;;;;;14.97;49.62;99870.09;4981827;28;20066;-52
2022/05/28 06:43:06;;;;;;;2.58;0.50;;;;;;;15.07;49.70;99871.44;4986461;28;20054;-51
2022/05/28 06:45:32;;;;;;;0.77;0.30;;;;;;;15.26;48.68;99873.31;4991971;28;20054;-51
2022/05/28 06:47:59;;;;;;;1.42;0.30;;;;;;;15.34;48.20;99868.63;4979679;28;20062;-51
2022/05/28 06:53:10;;;;;;;1.90;0.40;;;;;;;15.45;47.53;99869.03;4973528;28;20062;-51
2022/05/28 06:55:38;;;;;;;1.27;0.30;;;;;;;15.43;47.22;99865.63;4974633;28;20055;-54
2022/05/28 06:58:07;;;;;;;2.05;0.30;;;;;;;15.35;47.31;99859.88;4973765;28;20788;-53
2022/05/28 07:00:33;;;;;;;1.17;0.45;;;;;;;15.28;47.86;99866.25;4984965;28;20050;-53
2022/05/28 07:03:00;;;;;;;1.38;0.50;;;;;;;15.23;48.22;99871.69;4993189;28;20145;-51
2022/05/28 07:05:29;;;;;;;3.05;0.52;;;;;;;15.24;48.50;99868.16;4994677;28;20058;-55
2022/05/28 07:07:55;;;;;;;3.35;0.60;;;;;;;15.20;48.30;99870.97;4995243;28;20451;-53
2022/05/28 07:10:22;;;;;;;3.13;0.57;;;;;;;15.12;48.53;99873.88;4994422;28;20089;-52
2022/05/28 07:12:49;;;;;;;2.33;0.70;;;;;;;15.06;48.92;99874.09;4994792;28;20058;-52
2022/05/28 07:15:16;;;;;;;3.83;0.75;;;;;;;15.00;49.08;99875.19;4994555;28;20112;-54
2022/05/28 07:17:50;;;;;;;2.42;0.60;;;;;;;14.94;49.07;99882.41;4994692;28;20058;-55
2022/05/28 07:20:17;;;;;;;3.80;0.57;;;;;;;14.85;49.16;99875.81;4994423;28;20050;-53
2022/05/28 07:22:45;;;;;;;2.88;0.60;;;;;;;14.87;49.60;99871.38;5013100;28;20049;-51
2022/05/28 07:25:12;;;;;;;5.38;0.63;;;;;;;14.93;49.35;99873.75;5011761;28;20081;-54
2022/05/28 07:27:39;;;;;;;4.00;0.90;;;;;;;15.03;49.19;99858.56;4994899;28;20443;-54
2022/05/28 07:30:06;;;;;;;6.10;0.80;;;;;;;15.20;48.56;99870.97;4994402;28;20080;-51
2022/05/28 07:32:32;;;;;;;2.72;0.57;;;;;;;15.31;48.77;99858.31;4994350;28;20061;-52
2022/05/28 07:35:00;;;;;;;3.30;0.60;;;;;;;15.55;48.12;99859.88;4994478;28;20058;-50
2022/05/28 07:37:29;;;;;;;1.95;0.60;;;;;;;15.75;47.50;99859.94;4994173;28;20066;-51
2022/05/28 07:39:58;;;;;;;2.45;0.70;;;;;;;16.02;47.36;99862.22;4994148;28;20061;-51
2022/05/28 07:42:25;;;;;;;4.00;0.80;;;;;;;16.20;46.64;99856.22;4993962;28;20047;-54
2022/05/28 07:44:51;;;;;;;3.20;0.45;;;;;;;16.44;46.39;99858.59;5001760;28;20042;-52
2022/05/28 07:47:19;;;;;;;2.08;0.68;;;;;;;16.47;46.10;99858.47;5013346;28;20053;-52
2022/05/28 07:49:46;;;;;;;2.80;0.57;;;;;;;16.50;46.04;99858.31;5013856;28;20196;-55
2022/05/28 07:52:12;;;;;;;3.55;0.70;;;;;;;16.51;46.01;99862.63;5013404;28;20462;-54
2022/05/28 07:54:39;;;;;;;1.50;0.50;;;;;;;16.49;45.93;99862.69;5013341;28;20525;-53
2022/05/28 07:57:07;;;;;;;4.93;0.82;;;;;;;16.44;45.51;99859.47;5013699;28;20053;-52
2022/05/28 07:59:33;;;;;;;1.60;0.40;;;;;;;16.38;45.58;99857.97;5009165;28;20054;-52
2022/05/28 08:02:00;;;;;;;1.98;0.45;;;;;;;16.56;44.97;99853.66;4993928;28;20065;-51
2022/05/28 08:04:26;;;;;;;1.27;0.40;;;;;;;16.69;45.02;99859.22;4993587;28;20490;-52
2022/05/28 08:06:53;;;;;;;2.50;0.45;;;;;;;16.83;44.55;99862.00;4993893;28;20054;-52
2022/05/28 08:09:19;;;;;;;2.17;0.50;;;;;;;17.02;44.42;99849.72;4993792;28;20065;-54
2022/05/28 08:11:45;;;;;;;5.13;0.73;;;;;;;17.17;44.06;99849.91;4993910;28;20138;-55
2022/05/28 08:14:13;;;;;;;3.90;1.08;;;;;;;17.42;42.62;99839.91;4993737;28;20054;-54
2022/05/28 08:16:40;;;;;;;1.38;0.70;;;;;;;17.55;43.00;99851.47;4993724;28;20064;-52
2022/05/28 08:19:06;;;;;;;1.63;0.60;;;;;;;17.58;42.54;99855.69;4993982;28;20051;-52
2022/05/28 08:24:16;;;;;;;3.45;0.60;;;;;;;17.62;42.01;99852.84;5012883;28;20061;-52
2022/05/28 08:26:43;;;;;;;0.98;0.50;;;;;;;17.58;42.31;99851.28;4998762;28;20061;-52
2022/05/28 08:29:09;;;;;;;1.95;0.52;;;;;;;17.86;42.08;99847.31;4993667;28;20065;-53
2022/05/28 08:31:37;;;;;;;2.13;0.50;;;;;;;17.97;41.71;99842.34;4993594;28;20054;-52
2022/05/28 08:34:04;;;;;;;2.28;0.52;;;;;;;18.16;41.16;99843.03;4993518;28;20065;-52
2022/05/28 08:36:30;;;;;;;3.67;0.50;;;;;;;18.38;40.82;99841.91;4993603;28;20046;-52
2022/05/28 08:38:57;;;;;;;10.23;1.40;;;;;;;18.58;40.23;99839.88;4993433;28;20051;-55
2022/05/28 08:41:26;;;;;;;0.90;0.40;;;;;;;18.83;40.14;99835.94;4993316;28;20474;-55
2022/05/28 08:44:01;;;;;;;6.82;1.38;;;;;;;18.97;38.96;99857.00;4993467;28;20062;-54
2022/05/28 08:46:31;;;;;;;6.72;0.90;;;;;;;18.96;39.20;99844.81;4974202;28;20051;-52
2022/05/28 08:49:00;;;;;;;1.75;0.50;;;;;;;18.94;39.29;99853.72;4973895;28;20066;-52
2022/05/28 08:51:36;;;;;;;3.55;0.73;;;;;;;18.80;39.43;99854.50;4973912;28;20475;-52
2022/05/28 08:54:08;;;;;;;1.50;0.60;;;;;;;18.73;39.92;99853.09;4974148;28;20055;-52
2022/05/28 08:56:35;;;;;;;2.83;0.52;;;;;;;18.50;40.00;99856.97;4974080;28;20066;-52
2022/05/28 08:59:06;;;;;;;6.85;0.60;;;;;;;18.33;40.02;99864.94;4976811;28;20054;-52
2022/05/28 09:01:36;;;;;;;1.83;0.60;;;;;;;18.22;40.49;99858.50;4977511;28;20483;-53
2022/05/28 09:04:07;;;;;;;1.98;0.50;;;;;;;18.18;40.46;99856.94;4977738;28;20047;-53
2022/05/28 09:06:38;;;;;;;4.45;0.70;;;;;;;18.15;40.09;99854.47;4977435;28;20070;-52
2022/05/28 09:09:08;;;;;;;4.55;0.75;;;;;;;18.13;40.32;99848.47;4977524;28;20072;-55
2022/05/28 09:11:38;;;;;;;3.03;0.70;;;;;;;18.14;40.44;99851.94;4977372;28;20059;-52
2022/05/28 09:14:19;;;;;;;2.75;0.65;;;;;;;18.12;40.00;99856.41;4977434;28;20050;-51
2022/05/28 09:16:48;;;;;;;1.67;0.77;;;;;;;18.15;40.19;99849.22;4984719;28;20082;-52
2022/05/28 09:19:19;;;;;;;3.97;0.70;;;;;;;18.25;40.06;99847.81;4996761;28;20062;-54
2022/05/28 09:21:47;;;;;;;1.23;0.43;;;;;;;18.36;39.94;99852.50;5007705;28;20045;-52
2022/05/28 09:24:17;;;;;;;3.80;0.88;;;;;;;18.43;39.70;99851.22;5016252;28;20545;-52
2022/05/28 09:26:53;;;;;;;1.88;0.70;;;;;;;18.40;39.16;99861.88;5001577;28;20061;-52
2022/05/28 09:29:34;;;;;;;2.28;0.75;;;;;;;18.33;38.22;99849.19;4996724;28;20057;-55
2022/05/28 09:32:11;;;;;;;1.48;0.68;;;;;;;18.25;39.24;99850.44;4996412;28;20058;-53
2022/05/28 09:34:52;;;;;;;1.73;0.70;;;;;;;18.20;38.83;99855.06;4996433;28;20058;-55
2022/05/28 09:37:30;;;;;;;3.00;1.10;;;;;;;18.13;39.09;99851.09;4996755;28;20101;-53
2022/05/28 09:40:02;;;;;;;1.63;0.60;;;;;;;18.10;39.04;99842.53;4996405;28;20053;-52
2022/05/28 09:42:47;;;;;;;2.25;0.60;;;;;;;18.08;39.03;99847.84;4996708;28;20057;-55
2022/05/28 09:45:22;;;;;;;6.73;1.03;;;;;;;17.97;39.77;99847.59;5006761;28;20446;-52
2022/05/28 09:47:50;;;;;;;3.13;0.63;;;;;;;17.84;39.78;99844.75;5015927;28;20065;-52
2022/05/28 09:50:21;;;;;;;6.25;0.75;;;;;;;17.76;39.61;99853.97;5015816;28;20058;-52
2022/05/28 09:55:42;;;;;;;1.63;0.57;;;;;;;17.76;40.11;99833.84;5016008;28;20057;-52
2022/05/28 09:58:18;;;;;;;6.45;1.25;;;;;;;17.82;39.82;99851.00;5016070;28;20145;-54
2022/05/28 10:00:49;;;;;;;5.25;0.60;;;;;;;17.81;40.25;99849.31;5008519;28;20060;-54
2022/05/28 10:06:15;;;;;;;2.70;0.60;;;;;;;17.70;40.22;99843.78;4996173;28;20493;-52
2022/05/28 10:08:42;;;;;;;1.80;0.68;;;;;;;17.73;40.41;99843.63;4996094;28;20112;-52
2022/05/28 10:11:14;;;;;;;1.98;0.60;;;;;;;17.76;40.40;99848.72;4995851;28;20086;-52
2022/05/28 10:13:45;;;;;;;2.55;0.40;;;;;;;17.81;40.31;99846.69;4996397;28;20054;-53
2022/05/28 10:16:13;;;;;;;1.70;0.50;;;;;;;17.83;40.41;99847.47;4996156;28;20059;-55
2022/05/28 10:18:46;;;;;;;3.85;0.80;;;;;;;17.83;40.71;99850.09;4995950;28;20146;-51
2022/05/28 10:21:18;;;;;;;1.48;0.60;;;;;;;17.71;40.83;99848.09;4996066;28;20054;-52
2022/05/28 10:23:51;;;;;;;2.28;0.77;;;;;;;17.59;41.76;99863.47;4996226;28;20050;-52
2022/05/28 10:26:21;;;;;;;4.97;1.45;;;;;;;17.40;43.28;99867.94;4995958;28;20478;-51
2022/05/28 10:28:49;;;;;;;1.23;0.40;;;;;;;17.13;44.51;99887.63;4995947;28;20061;-55
2022/05/28 10:31:18;;;;;;;2.58;0.60;;;;;;;16.84;46.43;99887.28;4995980;28;20049;-55
2022/05/28 10:33:45;;;;;;;4.80;0.80;;;;;;;16.63;47.82;99877.75;4995887;28;20069;-52
2022/05/28 10:36:28;;;;;;;1.05;0.50;;;;;;;16.47;48.71;99874.16;4995850;28;20054;-52
2022/05/28 10:39:07;;;;;;;1.58;0.40;;;;;;;16.41;48.68;99880.53;4995535;28;20475;-52
2022/05/28 10:41:36;;;;;;;1.48;0.40;;;;;;;16.36;48.98;99878.13;4995682;28;20487;-53
2022/05/28 10:44:02;;;;;;;1.95;0.55;;;;;;;16.32;48.86;99879.19;4996590;28;20065;-52
2022/05/28 10:46:50;;;;;;;1.33;0.50;;;;;;;16.35;48.99;99884.28;5014933;28;20046;-52
2022/05/28 10:49:41;;;;;;;2.03;0.50;;;;;;;16.44;49.97;99879.53;5014835;28;20088;-51
2022/05/28 10:52:23;;;;;;;1.65;0.60;;;;;;;16.55;49.54;99874.66;5015240;28;20053;-53
2022/05/28 10:54:56;;;;;;;1.67;0.52;;;;;;;16.66;48.97;99880.28;5014954;28;20045;-51
2022/05/28 10:57:42;;;;;;;1.73;0.50;;;;;;;16.74;49.03;99883.41;5014836;28;20682;-52
2022/05/28 11:00:12;;;;;;;2.35;0.63;;;;;;;16.81;49.57;99884.78;5014979;28;20053;-55
2022/05/28 11:03:01;;;;;;;1.05;0.50;;;;;;;16.90;49.04;99889.59;5014942;28;20061;-52
2022/05/28 11:05:44;;;;;;;1.10;0.35;;;;;;;16.94;48.04;99891.13;5014806;28;20099;-54
2022/05/28 11:08:17;;;;;;;0.88;0.50;;;;;;;17.04;47.69;99886.31;5014844;28;20060;-56
2022/05/28 11:10:59;;;;;;;2.22;0.43;;;;;;;17.15;46.97;99885.78;5014431;28;20072;-52
2022/05/28 11:13:48;;;;;;;1.23;0.30;;;;;;;17.23;46.23;99881.91;5014880;28;20133;-52
2022/05/28 11:16:32;;;;;;;0.95;0.40;;;;;;;17.29;46.73;99878.13;5010999;28;20510;-53
2022/05/28 11:19:17;;;;;;;2.90;0.50;;;;;;;17.37;46.73;99889.06;4994958;28;20046;-52
2022/05/28 11:21:49;;;;;;;;;;;;;;;17.31;45.22;99886.75;4994955;28;20050;-52
2022/05/28 11:24:43;;;;;;;1.40;0.43;;;;;;;17.25;44.97;99884.44;4995174;28;19962;-51
2022/05/28 11:27:20;;;;;;;1.52;0.40;;;;;;;17.21;45.76;99890.75;4994934;28;20050;-54
2022/05/28 11:29:56;;;;;;;1.23;0.40;;;;;;;17.24;45.58;99883.59;4994658;28;20521;-52
2022/05/28 11:32:26;;;;;;;1.02;0.40;;;;;;;17.23;45.94;99881.91;4994843;28;20046;-51
2022/05/28 11:34:57;;;;;;;0.40;0.30;;;;;;;17.15;45.69;99885.78;4994851;28;20050;-55
2022/05/28 11:37:28;;;;;;;1.05;0.40;;;;;;;16.93;46.22;99878.97;4994917;28;20065;-56
2022/05/28 11:39:59;;;;;;;4.97;0.50;;;;;;;16.88;46.75;99890.59;4994486;28;20371;-56
2022/05/28 11:42:35;;;;;;;1.10;0.40;;;;;;;16.88;46.75;99880.97;4994381;28;20519;-56
2022/05/28 11:45:06;;;;;;;2.50;0.40;;;;;;;16.98;47.09;99882.22;5003536;28;20049;-55
2022/05/28 11:47:42;;;;;;;0.57;0.30;;;;;;;17.03;46.60;99875.00;5014201;28;20054;-55
2022/05/28 11:53:10;;;;;;;0.93;0.40;;;;;;;16.91;46.83;99880.81;5013935;28;20064;-56
2022/05/28 11:55:42;;;;;;;1.92;0.30;;;;;;;16.85;47.12;99875.03;5013979;28;20517;-53
2022/05/28 11:58:15;;;;;;;1.45;0.60;;;;;;;16.75;46.79;99882.47;5014113;28;20049;-52